createdAt,value
2019-05-01T00:04:49.578Z,51.16
2019-05-01T00:09:52.929Z,51.21
2019-05-01T00:14:56.349Z,51.19
2019-05-01T00:19:59.695Z,51.16
2019-05-01T00:25:03.209Z,51.15
2019-05-01T00:30:08.364Z,51.16
2019-05-01T00:35:11.677Z,51.15
2019-05-01T00:40:15.074Z,51.12
2019-05-01T00:45:18.469Z,51.14
2019-05-01T00:50:21.815Z,51.10
2019-05-01T00:55:38.875Z,51.07
2019-05-01T01:00:59.827Z,50.80
2019-05-01T01:06:04.774Z,51.06
2019-05-01T01:11:08.267Z,51.20
2019-05-01T01:16:11.580Z,51.25
2019-05-01T01:21:14.955Z,51.30
2019-05-01T01:26:18.267Z,51.27
2019-05-01T01:31:21.580Z,51.28
2019-05-01T01:36:24.911Z,51.30
2019-05-01T01:41:28.226Z,51.34
2019-05-01T01:46:33.179Z,51.35
2019-05-01T01:51:36.477Z,51.40
2019-05-01T01:56:39.789Z,51.39
2019-05-01T02:01:50.316Z,51.32
2019-05-01T02:06:53.703Z,51.35
2019-05-01T02:11:57.021Z,51.38
2019-05-01T02:17:00.336Z,51.43
2019-05-01T02:22:03.637Z,51.47
2019-05-01T02:27:11.150Z,51.55
2019-05-01T02:32:15.238Z,51.65
2019-05-01T02:37:18.527Z,51.71
2019-05-01T02:42:22.016Z,51.70
2019-05-01T02:47:27.069Z,51.78
2019-05-01T02:52:32.097Z,51.83
2019-05-01T02:57:35.423Z,51.83
2019-05-01T03:02:38.856Z,51.84
2019-05-01T03:07:42.183Z,51.90
2019-05-01T03:12:45.528Z,51.94
2019-05-01T03:17:53.133Z,51.96
2019-05-01T03:23:14.164Z,51.97
2019-05-01T03:28:17.748Z,52.00
2019-05-01T03:33:21.215Z,52.02
2019-05-01T03:38:24.539Z,52.08
2019-05-01T03:43:28.132Z,52.08
2019-05-01T03:48:31.467Z,52.09
2019-05-01T03:53:34.902Z,52.12
2019-05-01T03:58:38.244Z,52.10
2019-05-01T04:03:51.966Z,52.13
2019-05-01T04:08:55.555Z,52.39
2019-05-01T04:13:58.891Z,52.69
2019-05-01T04:19:02.350Z,52.77
2019-05-01T04:24:05.649Z,52.45
2019-05-01T04:29:13.166Z,52.77
2019-05-01T04:34:30.047Z,52.67
2019-05-01T04:39:33.353Z,52.71
2019-05-01T04:44:36.697Z,52.70
2019-05-01T04:49:40.000Z,52.69
2019-05-01T04:54:43.290Z,52.47
2019-05-01T04:59:46.639Z,52.49
2019-05-01T05:04:49.962Z,52.43
2019-05-01T05:09:53.291Z,52.39
2019-05-01T05:15:01.317Z,52.48
2019-05-01T05:20:06.786Z,52.54
2019-05-01T05:25:10.126Z,52.57
2019-05-01T05:30:14.058Z,52.52
2019-05-01T05:35:17.434Z,52.52
2019-05-01T05:40:20.748Z,52.46
2019-05-01T05:45:24.050Z,52.39
2019-05-01T05:50:31.655Z,52.31
2019-05-01T05:55:36.641Z,52.41
2019-05-01T06:00:41.616Z,52.55
2019-05-01T06:05:46.601Z,52.40
2019-05-01T06:11:07.500Z,52.44
2019-05-01T06:16:18.297Z,52.49
2019-05-01T06:21:29.200Z,52.51
2019-05-01T06:26:37.358Z,52.56
2019-05-01T06:31:39.082Z,52.44
2019-05-01T06:36:44.445Z,52.52
2019-05-01T06:41:47.415Z,52.40
2019-05-01T06:46:58.158Z,52.62
2019-05-01T06:52:02.301Z,53.31
2019-05-01T06:57:05.588Z,52.94
2019-05-01T07:02:09.470Z,53.74
2019-05-01T07:07:24.673Z,54.14
2019-05-01T07:12:19.488Z,54.10
2019-05-01T07:17:23.952Z,53.70
2019-05-01T07:22:27.393Z,53.33
2019-05-01T07:27:30.706Z,54.59
2019-05-01T07:32:36.506Z,54.41
2019-05-01T07:37:39.277Z,55.31
2019-05-01T07:42:48.321Z,55.42
2019-05-01T07:47:53.565Z,54.83
2019-05-01T07:52:56.888Z,54.21
2019-05-01T07:58:00.199Z,54.79
2019-05-01T08:03:07.232Z,54.64
2019-05-01T08:08:09.625Z,54.89
2019-05-01T08:13:12.997Z,54.07
2019-05-01T08:18:17.990Z,54.38
2019-05-01T08:23:21.369Z,53.56
2019-05-01T08:28:27.694Z,54.11
2019-05-01T08:33:33.054Z,54.28
2019-05-01T08:38:36.460Z,54.05
2019-05-01T08:43:39.961Z,54.15
2019-05-01T08:48:59.788Z,54.63
2019-05-01T08:54:03.164Z,54.26
2019-05-01T08:59:06.482Z,53.27
2019-05-01T09:04:13.038Z,53.87
2019-05-01T09:09:14.913Z,53.49
2019-05-01T09:14:18.236Z,54.18
2019-05-01T09:19:21.648Z,53.92
2019-05-01T09:24:27.977Z,54.07
2019-05-01T09:29:37.552Z,53.35
2019-05-01T09:34:40.931Z,53.43
2019-05-01T09:39:47.069Z,52.57
2019-05-01T09:44:49.276Z,53.36
2019-05-01T09:49:53.878Z,54.49
2019-05-01T09:55:05.165Z,54.43
2019-05-01T10:00:10.106Z,53.84
2019-05-01T10:05:13.498Z,53.97
2019-05-01T10:10:16.813Z,53.72
2019-05-01T10:15:20.634Z,53.40
2019-05-01T10:20:23.952Z,53.91
2019-05-01T10:25:27.269Z,54.20
2019-05-01T10:30:44.011Z,53.84
2019-05-01T10:36:03.813Z,53.77
2019-05-01T10:41:09.155Z,53.93
2019-05-01T10:46:12.236Z,53.85
2019-05-01T10:51:15.600Z,53.61
2019-05-01T10:56:18.927Z,53.85
2019-05-01T11:01:23.926Z,53.24
2019-05-01T11:06:27.328Z,53.09
2019-05-01T11:11:30.751Z,53.17
2019-05-01T11:16:34.114Z,53.61
2019-05-01T11:21:37.440Z,53.20
2019-05-01T11:26:40.792Z,52.71
2019-05-01T11:31:54.670Z,53.05
2019-05-01T11:37:15.737Z,52.85
2019-05-01T11:42:19.260Z,52.70
2019-05-01T11:47:22.660Z,52.46
2019-05-01T11:52:26.014Z,53.33
2019-05-01T11:57:29.360Z,53.28
2019-05-01T12:02:34.172Z,53.76
2019-05-01T12:07:37.536Z,53.35
2019-05-01T12:12:40.873Z,53.53
2019-05-01T12:17:45.858Z,53.41
2019-05-01T12:22:51.399Z,53.66
2019-05-01T12:27:54.232Z,53.40
2019-05-01T12:32:57.763Z,53.91
2019-05-01T12:38:02.813Z,53.71
2019-05-01T12:43:06.149Z,53.66
2019-05-01T12:48:09.582Z,53.66
2019-05-01T12:53:14.568Z,53.49
2019-05-01T12:58:17.994Z,53.45
2019-05-01T13:03:21.328Z,53.32
2019-05-01T13:08:24.712Z,53.55
2019-05-01T13:13:28.449Z,53.55
2019-05-01T13:18:31.946Z,53.38
2019-05-01T13:23:35.412Z,53.24
2019-05-01T13:28:40.370Z,53.61
2019-05-01T13:33:43.849Z,53.31
2019-05-01T13:38:47.183Z,53.37
2019-05-01T13:43:50.534Z,52.81
2019-05-01T13:48:54.020Z,53.14
2019-05-01T13:53:57.581Z,52.87
2019-05-01T13:59:01.082Z,52.30
2019-05-01T14:04:04.387Z,51.25
2019-05-01T14:09:09.884Z,49.86
2019-05-01T14:14:13.191Z,49.11
2019-05-01T14:19:16.548Z,48.68
2019-05-01T14:24:27.115Z,48.32
2019-05-01T14:29:30.485Z,47.89
2019-05-01T14:34:33.814Z,48.19
2019-05-01T14:39:37.159Z,48.06
2019-05-01T14:44:40.500Z,48.21
2019-05-01T14:49:43.930Z,48.55
2019-05-01T14:54:47.253Z,48.78
2019-05-01T14:59:50.544Z,49.00
2019-05-01T15:04:53.869Z,49.01
2019-05-01T15:09:57.182Z,49.17
2019-05-01T15:15:02.148Z,48.90
2019-05-01T15:20:07.173Z,47.51
2019-05-01T15:25:10.737Z,46.38
2019-05-01T15:30:17.458Z,45.84
2019-05-01T15:35:20.769Z,43.63
2019-05-01T15:40:28.806Z,44.79
2019-05-01T15:45:32.189Z,45.35
2019-05-01T15:50:35.517Z,45.36
2019-05-01T15:55:38.841Z,45.56
2019-05-01T16:00:42.234Z,48.07
2019-05-01T16:05:45.567Z,49.38
2019-05-01T16:10:53.280Z,51.49
2019-05-01T16:15:56.687Z,51.81
2019-05-01T16:21:00.092Z,51.43
2019-05-01T16:26:03.835Z,52.39
2019-05-01T16:31:07.244Z,52.50
2019-05-01T16:36:10.685Z,52.52
2019-05-01T16:41:14.076Z,52.87
2019-05-01T16:46:17.451Z,52.64
2019-05-01T16:51:20.771Z,52.13
2019-05-01T16:56:24.072Z,52.12
2019-05-01T17:01:45.008Z,52.50
2019-05-01T17:06:49.967Z,52.34
2019-05-01T17:11:53.274Z,52.04
2019-05-01T17:16:56.691Z,52.16
2019-05-01T17:22:00.204Z,52.44
2019-05-01T17:27:04.027Z,53.21
2019-05-01T17:32:09.122Z,53.32
2019-05-01T17:37:13.093Z,53.91
2019-05-01T17:42:16.505Z,54.29
2019-05-01T17:47:22.481Z,54.79
2019-05-01T17:52:25.106Z,54.93
2019-05-01T17:57:28.503Z,54.72
2019-05-01T18:02:48.390Z,54.61
2019-05-01T18:07:51.695Z,54.58
2019-05-01T18:12:55.021Z,54.28
2019-05-01T18:17:58.455Z,53.92
2019-05-01T18:23:03.403Z,53.91
2019-05-01T18:28:17.093Z,53.62
2019-05-01T18:33:22.029Z,54.28
2019-05-01T18:38:29.680Z,54.46
2019-05-01T18:43:33.919Z,54.52
2019-05-01T18:48:37.374Z,54.71
2019-05-01T18:53:40.789Z,54.09
2019-05-01T18:58:44.114Z,54.39
2019-05-01T19:03:47.510Z,54.36
2019-05-01T19:08:50.854Z,53.65
2019-05-01T19:13:54.196Z,54.30
2019-05-01T19:18:57.539Z,53.50
2019-05-01T19:24:06.017Z,53.62
2019-05-01T19:29:09.708Z,53.85
2019-05-01T19:34:13.136Z,53.68
2019-05-01T19:39:16.462Z,53.75
2019-05-01T19:44:20.151Z,53.59
2019-05-01T19:49:24.755Z,53.63
2019-05-01T19:54:29.999Z,53.50
2019-05-01T19:59:33.501Z,53.46
2019-05-01T20:04:36.822Z,53.11
2019-05-01T20:09:40.188Z,52.94
2019-05-01T20:14:43.508Z,52.93
2019-05-01T20:19:46.871Z,52.79
2019-05-01T20:24:50.173Z,52.73
2019-05-01T20:29:53.497Z,52.72
2019-05-01T20:34:59.304Z,52.82
2019-05-01T20:40:10.869Z,52.79
2019-05-01T20:45:17.669Z,52.83
2019-05-01T20:50:14.773Z,52.87
2019-05-01T20:55:18.086Z,52.89
2019-05-01T21:00:23.019Z,52.95
2019-05-01T21:05:30.971Z,52.92
2019-05-01T21:10:36.158Z,52.92
2019-05-01T21:15:39.515Z,53.10
2019-05-01T21:20:43.893Z,53.27
2019-05-01T21:25:47.242Z,53.11
2019-05-01T21:30:50.542Z,53.00
2019-05-01T21:35:54.121Z,52.93
2019-05-01T21:40:57.440Z,52.86
2019-05-01T21:46:00.782Z,52.84
2019-05-01T21:51:07.232Z,52.81
2019-05-01T21:56:09.189Z,52.80
2019-05-01T22:01:12.512Z,52.81
2019-05-01T22:06:16.683Z,52.78
2019-05-01T22:11:20.122Z,52.77
2019-05-01T22:16:25.102Z,52.71
2019-05-01T22:21:45.134Z,52.69
2019-05-01T22:26:58.788Z,52.72
2019-05-01T22:32:09.554Z,52.68
2019-05-01T22:37:12.943Z,52.67
2019-05-01T22:42:16.364Z,52.67
2019-05-01T22:47:19.806Z,52.66
2019-05-01T22:52:23.177Z,52.69
2019-05-01T22:57:26.530Z,52.65
2019-05-01T23:02:34.225Z,52.64
2019-05-01T23:07:37.525Z,52.65
2019-05-01T23:12:40.911Z,52.64
2019-05-01T23:17:47.477Z,52.62
2019-05-01T23:22:50.822Z,52.62
2019-05-01T23:27:54.234Z,52.63
2019-05-01T23:32:57.550Z,52.63
2019-05-01T23:38:00.886Z,52.62
2019-05-01T23:43:04.295Z,52.63
2019-05-01T23:48:07.591Z,52.60
2019-05-01T23:53:14.057Z,52.60
2019-05-01T23:58:16.128Z,52.62
